Portada
METAR-TAF:

METAR-TAF

Aeroports :

Clarmont d'Alvèrnia, França

latitud: 45-47N, longitud: 003-10E, altitud: 332 m

Observació

L'informe es va fer fa 29 minuts, a les 07:30 UTC
Vent 4 kt del Nord, variant entre Oest i Est/Nord-Est
Temperatura 17°C
Humitat 55%
Pressió 1021 hPa
Visibilitat 10 km o més
sense núvols per sota de 1500 mi sense presència de cumulonimbus.

METAR: LFLC 250730Z AUTO 36004KT 280V060 CAVOK 17/08 Q1021 NOSIG

Hora: 09:59 (07:59 UTC)

Pronòstic

L'informe es va fer fa 5 hores i 59 minuts, a les 02:00 UTC
Pronòstic vàlid del 25 a les 03 UTC al 26 a les 03 UTC
Vent 8 kt del Nord
Visibilitat 10 km o més
sense núvols per sota de 1500 mi sense presència de cumulonimbus.

TAF: LFLC 250200Z 2503/2603 35008KT CAVOK

Observacions i pronòstics meteorològics de més de 4000 aeroports (METAR i TAF).

Les estacions disponibles són els punts grocs i vermells al mapa.

Posi el ratolí al punt desitjat per veure el nom de l'estació.

Feu clic per veure les observacions i els pronòstics meteorològics.

Per canviar el mapa: feu clic els botons verds amb una creu de color negre per apropar; al botó verd amb un guió per allunyar la imatge; o en les fletxes verdes per a mapes adjacents.


METAR-TAF: